Terminal Aerodrome Forecast
Issued by NWS

Home | Current Version | Previous Version | Text Only | Print | Product List | Glossary On
Versions: 1 2 3 4 5 6 7 8 9 10 11 12 13 14
000
FTUS45 KABQ 022042 AAA
TAFAEG
TAF AMD
KAEG 022042Z 0221/0318 36011KT P6SM VCSH SCT060 BKN100
      TEMPO 0221/0301 VRB20G30KT 6SM -TSRA BKN060CB
     FM030300 12012G22KT P6SM VCSH SCT025 BKN060
     FM030500 36006KT P6SM BKN090=

USA.gov is the U.S. government's official web portal to all federal, state and local government web resources and services.